Fairdale, Pennsylvania
Current Conditions -  °F | °C
As of 5:53 AM on Wednesday 26 Nov 2014 (Local Time) from KMGW Reporting Station
Overcast Overcast  
Wind Chill: 29°   Ceiling: 11000
Heat Index: 34°   Visibility: 10mi
Dew Point: 24°   Wind: 6mph
Humidity: 67%   Direction: 30°NNE
Pressure: 30.03"   Gusts: NA
Location:  39.864°N, 80.0039°W
Report Text: KMGW 261053Z AUTO 03005KT 10SM OVC110 01/M04 A3003 RMK AO2 SLP175 T00111044 TSNO
Loading
Personal Weather Stations






























Interactive Weather Map New forecast layout! Learn more

10-Day Weather Forecast

Advertisements
Track Severe Weather on mobile